Time;durP1;ratioP1;P1;durP2;ratioP2;P2;SDS_P1;SDS_P2;PMS_P1;PMS_P2;Temp;Humidity;BMP_temperature;BMP_pressure;BME280_temperature;BME280_humidity;BME280_pressure;Samples;Min_cycle;Max_cycle;Signal;HPM_P1;HPM_P2
2022/01/27 00:01:33;;;;;;;29.15;11.98;;;5.00;99.90;;;;;;5052058;28;20217;-85
2022/01/27 00:04:27;;;;;;;34.95;11.60;;;4.70;99.90;;;;;;5070219;28;20441;-85
2022/01/27 00:06:46;;;;;;;39.08;12.73;;;4.70;99.90;;;;;;5086290;28;20135;-84
2022/01/27 00:09:18;;;;;;;36.90;12.70;;;4.70;99.90;;;;;;5073359;28;20970;-82
2022/01/27 00:11:46;;;;;;;32.40;11.82;;;5.10;99.90;;;;;;5072699;28;20059;-84
2022/01/27 00:14:14;;;;;;;38.28;11.80;;;5.00;99.90;;;;;;5069052;28;20036;-83
2022/01/27 00:16:44;;;;;;;32.80;12.98;;;5.20;99.90;;;;;;5066863;28;20047;-84
2022/01/27 00:19:11;;;;;;;31.88;11.93;;;4.60;99.90;;;;;;5070936;28;20040;-83
2022/01/27 00:21:37;;;;;;;40.17;11.25;;;4.80;99.90;;;;;;5083676;28;20040;-83
2022/01/27 00:24:04;;;;;;;34.40;13.25;;;5.00;99.90;;;;;;5066789;28;20051;-84
2022/01/27 00:26:32;;;;;;;37.88;12.13;;;4.70;99.90;;;;;;5068674;28;20051;-83
2022/01/27 00:28:58;;;;;;;34.25;11.27;;;4.70;99.90;;;;;;5066764;28;20091;-83
2022/01/27 00:31:24;;;;;;;34.22;12.70;;;4.60;99.90;;;;;;5068482;28;20130;-84
2022/01/27 00:33:51;;;;;;;29.45;12.20;;;5.10;99.90;;;;;;5070078;28;20033;-83
2022/01/27 00:36:18;;;;;;;34.15;12.25;;;5.40;99.90;;;;;;5068249;28;20041;-83
2022/01/27 00:38:44;;;;;;;27.30;10.55;;;4.50;99.90;;;;;;5064855;28;20102;-83
2022/01/27 00:41:11;;;;;;;34.58;11.27;;;4.80;99.90;;;;;;5085601;28;20053;-83
2022/01/27 00:43:36;;;;;;;31.35;13.15;;;4.60;99.90;;;;;;5068081;28;20045;-84
2022/01/27 00:46:02;;;;;;;29.75;11.18;;;5.50;99.90;;;;;;5062692;28;20598;-84
2022/01/27 00:48:28;;;;;;;41.47;12.07;;;5.20;99.90;;;;;;5067145;28;20041;-84
2022/01/27 00:50:58;;;;;;;24.60;9.77;;;5.40;99.90;;;;;;5061369;28;20052;-84
2022/01/27 00:53:34;;;;;;;32.83;11.00;;;4.90;99.90;;;;;;5064260;28;20033;-84
2022/01/27 00:56:12;;;;;;;28.08;10.20;;;5.50;99.90;;;;;;5069148;28;20052;-84
2022/01/27 01:01:27;;;;;;;39.00;11.90;;;5.00;99.90;;;;;;5070840;28;20041;-84
2022/01/27 01:03:57;;;;;;;35.05;11.60;;;4.80;99.90;;;;;;5069799;28;20522;-84
2022/01/27 01:06:36;;;;;;;35.20;11.27;;;5.10;99.90;;;;;;5070790;28;20037;-84
2022/01/27 01:09:50;;;;;;;33.10;11.75;;;5.10;99.90;;;;;;5068640;28;20041;-85
2022/01/27 01:15:35;;;;;;;34.70;10.70;;;5.00;99.90;;;;;;5011908;28;20068;-83
2022/01/27 01:18:06;;;;;;;26.42;10.25;;;4.40;99.90;;;;;;5059299;28;20074;-83
2022/01/27 01:31:16;;;;;;;28.05;9.68;;;5.30;99.90;;;;;;5092791;28;20056;-83
2022/01/27 01:33:45;;;;;;;27.38;11.40;;;5.30;99.90;;;;;;5091271;28;20036;-83
2022/01/27 01:36:34;;;;;;;28.25;9.77;;;4.80;99.90;;;;;;5069882;28;20056;-83
2022/01/27 01:38:59;;;;;;;34.17;10.68;;;4.60;99.90;;;;;;5090643;28;20510;-83
2022/01/27 01:41:25;;;;;;;36.45;11.68;;;5.40;99.90;;;;;;5090366;28;20040;-83
2022/01/27 01:43:51;;;;;;;23.80;9.88;;;4.70;99.90;;;;;;5089084;28;20036;-84
2022/01/27 01:46:17;;;;;;;33.28;10.65;;;4.70;99.90;;;;;;5093181;28;20044;-83
2022/01/27 01:48:43;;;;;;;32.05;12.15;;;4.70;99.90;;;;;;5093732;28;20044;-85
2022/01/27 01:51:08;;;;;;;29.40;9.40;;;4.80;99.90;;;;;;5068843;28;20045;-85
2022/01/27 01:53:34;;;;;;;32.55;8.85;;;5.00;99.90;;;;;;5070125;28;20481;-84
2022/01/27 01:56:00;;;;;;;28.30;9.27;;;4.70;99.90;;;;;;5090454;28;20044;-85
2022/01/27 01:58:25;;;;;;;29.33;11.38;;;4.80;99.90;;;;;;5075369;28;20044;-84
2022/01/27 02:00:51;;;;;;;33.78;12.20;;;4.80;99.90;;;;;;5074915;28;20048;-85
2022/01/27 02:03:17;;;;;;;28.05;10.25;;;4.80;99.90;;;;;;5074446;28;20052;-85
2022/01/27 02:05:49;;;;;;;34.53;10.95;;;4.60;99.90;;;;;;5098627;28;20546;-84
2022/01/27 02:19:22;;;;;;;29.40;9.98;;;4.80;99.90;;;;;;5086782;28;20044;-85
2022/01/27 02:21:54;;;;;;;28.88;10.48;;;4.90;99.90;;;;;;5087840;28;20047;-85
2022/01/27 02:24:22;;;;;;;29.60;10.50;;;4.90;99.90;;;;;;5069822;28;20060;-85
2022/01/27 02:26:49;;;;;;;29.95;10.48;;;5.10;99.90;;;;;;5071349;28;20043;-85
2022/01/27 02:29:20;;;;;;;27.02;10.85;;;5.60;99.90;;;;;;5069690;28;20044;-85
2022/01/27 02:31:47;;;;;;;37.05;12.20;;;4.90;99.90;;;;;;5090443;28;20045;-85
2022/01/27 02:34:13;;;;;;;31.85;10.13;;;5.50;99.90;;;;;;5090775;28;20115;-85
2022/01/27 02:36:39;;;;;;;34.28;11.43;;;5.40;99.90;;;;;;5071588;28;20047;-84
2022/01/27 02:39:07;;;;;;;35.35;12.73;;;5.30;99.90;;;;;;5084438;28;20040;-85
2022/01/27 02:42:01;;;;;;;34.10;12.02;;;4.90;99.90;;;;;;5069965;28;20044;-84
2022/01/27 02:44:34;;;;;;;26.45;9.75;;;4.90;99.90;;;;;;5071753;28;20178;-84
2022/01/27 02:47:00;;;;;;;32.35;10.15;;;4.70;99.90;;;;;;5069435;28;20098;-84
2022/01/27 02:49:27;;;;;;;31.52;11.93;;;5.00;99.90;;;;;;5089965;28;20048;-84
2022/01/27 02:51:53;;;;;;;27.38;10.18;;;4.90;99.90;;;;;;5093350;28;20119;-84
2022/01/27 02:54:19;;;;;;;29.40;9.95;;;4.90;99.90;;;;;;5074118;28;20051;-85
2022/01/27 02:56:47;;;;;;;19.70;9.60;;;5.30;99.90;;;;;;5086428;28;20048;-84
2022/01/27 02:59:14;;;;;;;27.98;10.90;;;4.90;99.90;;;;;;5088666;28;20885;-84
2022/01/27 03:01:43;;;;;;;34.28;12.05;;;4.90;99.90;;;;;;5067122;28;20044;-84
2022/01/27 03:04:09;;;;;;;33.55;10.90;;;4.90;99.90;;;;;;5088259;28;20048;-85
2022/01/27 03:06:58;;;;;;;27.55;11.57;;;4.90;99.90;;;;;;5093113;28;20083;-84
2022/01/27 03:09:42;;;;;;;30.75;11.52;;;6.40;99.90;;;;;;5066776;28;20036;-85
2022/01/27 03:12:26;;;;;;;26.75;10.13;;;5.30;99.90;;;;;;5067710;28;20526;-83
2022/01/27 03:15:11;;;;;;;27.17;9.70;;;5.50;99.90;;;;;;5074354;28;20550;-85
2022/01/27 03:17:59;;;;;;;;;;;;;;;;;;;;;
2022/01/27 03:20:50;;;;;;;41.88;11.93;;;5.70;99.90;;;;;;5084655;28;38951;-85
2022/01/27 03:23:26;;;;;;;21.35;9.32;;;4.20;99.90;;;;;;5069872;28;20134;-85
2022/01/27 03:26:22;;;;;;;26.55;12.05;;;5.70;99.90;;;;;;5070438;28;20059;-84
2022/01/27 03:28:59;;;;;;;30.85;9.20;;;5.00;99.90;;;;;;5087118;28;20040;-85
2022/01/27 03:31:33;;;;;;;34.95;13.48;;;5.20;99.90;;;;;;5071214;28;20578;-84
2022/01/27 03:34:31;;;;;;;26.70;10.98;;;5.60;99.90;;;;;;5066813;28;20041;-85
2022/01/27 03:37:04;;;;;;;25.05;9.00;;;5.20;99.90;;;;;;5062847;28;20117;-84
2022/01/27 03:43:19;;;;;;;;;;;;;;;;;;;;;
2022/01/27 03:45:51;;;;;;;27.95;10.02;;;5.00;99.90;;;;;;5089232;28;38624;-84
2022/01/27 03:48:28;;;;;;;35.60;10.00;;;4.90;99.90;;;;;;5071007;28;20039;-85
2022/01/27 03:51:03;;;;;;;26.70;10.07;;;5.70;99.90;;;;;;5075303;28;20039;-84
2022/01/27 03:53:37;;;;;;;33.47;11.23;;;5.00;99.90;;;;;;5070967;28;20189;-84
2022/01/27 03:56:25;;;;;;;29.02;12.88;;;5.40;99.90;;;;;;5065475;28;20583;-85
2022/01/27 03:59:09;;;;;;;19.83;8.43;;;5.80;99.90;;;;;;5070166;28;20056;-84
2022/01/27 04:01:57;;;;;;;24.30;8.77;;;5.80;99.90;;;;;;5090806;28;20124;-85
2022/01/27 04:04:36;;;;;;;22.75;8.45;;;6.40;99.90;;;;;;5072205;28;20044;-85
2022/01/27 04:07:12;;;;;;;25.08;9.45;;;5.40;99.90;;;;;;5068320;28;20044;-85
2022/01/27 04:09:50;;;;;;;26.95;9.85;;;4.20;99.90;;;;;;5088196;28;20087;-84
2022/01/27 04:12:42;;;;;;;24.35;10.88;;;4.30;99.90;;;;;;5069934;28;20043;-85
2022/01/27 04:15:46;;;;;;;;;;;5.60;99.90;;;;;;5088800;28;20154;-84
2022/01/27 04:18:33;;;;;;;28.35;10.68;;;4.90;99.90;;;;;;5028613;28;19963;-84
2022/01/27 04:24:16;;;;;;;29.42;9.98;;;5.50;99.90;;;;;;5030517;28;20534;-85
2022/01/27 04:27:19;;;;;;;30.05;10.30;;;5.30;99.90;;;;;;5011615;28;20532;-84
2022/01/27 04:29:50;;;;;;;24.15;10.70;;;4.70;99.90;;;;;;5019708;28;20512;-84
2022/01/27 04:32:42;;;;;;;25.33;9.77;;;5.70;99.90;;;;;;5018215;28;20145;-85
2022/01/27 04:35:16;;;;;;;26.25;10.25;;;6.40;99.90;;;;;;5019831;28;20099;-84
2022/01/27 04:38:36;;;;;;;23.63;8.70;;;6.10;99.90;;;;;;5033721;28;20045;-84
2022/01/27 04:43:58;;;;;;;24.30;10.48;;;4.20;99.90;;;;;;5035375;28;20065;-85
2022/01/27 04:46:56;;;;;;;30.75;11.15;;;5.10;99.90;;;;;;5018762;28;20048;-85
2022/01/27 04:52:18;;;;;;;29.65;9.73;;;5.00;99.90;;;;;;5066083;28;20046;-84
2022/01/27 04:55:24;;;;;;;31.77;11.63;;;4.40;99.90;;;;;;5088176;28;20511;-85
2022/01/27 04:58:07;;;;;;;24.80;9.68;;;5.70;99.90;;;;;;5069312;28;20067;-84
2022/01/27 05:00:45;;;;;;;31.08;10.20;;;3.50;99.90;;;;;;5068159;28;20164;-84
2022/01/27 05:03:44;;;;;;;;;;;;;;;;;;;;;
2022/01/27 05:06:19;;;;;;;25.35;9.18;;;6.60;99.90;;;;;;5073280;28;20044;-85
2022/01/27 05:08:52;;;;;;;27.70;10.15;;;3.70;99.90;;;;;;5072639;28;20043;-85
2022/01/27 05:11:34;;;;;;;22.13;10.50;;;5.40;99.90;;;;;;5073095;28;20068;-85
2022/01/27 05:14:26;;;;;;;22.58;9.43;;;5.10;99.90;;;;;;5073781;28;20473;-84
2022/01/27 05:16:55;;;;;;;25.85;10.95;;;4.70;99.90;;;;;;5068103;28;20098;-84
2022/01/27 05:19:56;;;;;;;23.17;8.70;;;5.70;99.90;;;;;;5065885;28;20132;-85
2022/01/27 05:22:35;;;;;;;25.27;10.15;;;3.60;99.90;;;;;;5087620;28;20131;-85
2022/01/27 05:25:17;;;;;;;26.52;9.32;;;5.30;99.90;;;;;;5067035;28;20040;-84
2022/01/27 05:28:13;;;;;;;20.40;9.48;;;5.40;99.90;;;;;;5073323;28;20049;-85
2022/01/27 05:30:50;;;;;;;25.70;10.88;;;5.30;99.90;;;;;;5079392;28;20087;-85
2022/01/27 05:33:29;;;;;;;25.83;10.70;;;5.30;99.90;;;;;;5069977;28;20060;-85
2022/01/27 05:36:21;;;;;;;28.33;10.95;;;4.90;99.90;;;;;;5071603;28;20565;-85
2022/01/27 05:39:04;;;;;;;27.10;10.70;;;4.80;99.90;;;;;;5064493;28;20056;-85
2022/01/27 05:41:48;;;;;;;25.10;7.95;;;4.70;99.90;;;;;;5068175;28;20053;-84
2022/01/27 05:44:25;;;;;;;20.55;9.90;;;6.60;99.90;;;;;;5070330;28;20087;-84
2022/01/27 05:47:06;;;;;;;18.98;8.15;;;5.90;99.90;;;;;;5066739;28;20048;-84
2022/01/27 05:49:49;;;;;;;31.60;11.50;;;5.10;99.90;;;;;;5063472;28;20073;-85
2022/01/27 05:52:31;;;;;;;23.35;12.98;;;5.50;99.90;;;;;;5066455;28;20056;-86
2022/01/27 05:55:40;;;;;;;25.15;10.13;;;4.00;99.90;;;;;;5074013;28;20044;-88
2022/01/27 05:58:14;;;;;;;21.55;8.93;;;5.30;99.90;;;;;;5082463;28;20049;-84
2022/01/27 06:00:40;;;;;;;21.88;10.75;;;4.50;99.90;;;;;;5066211;28;20429;-84
2022/01/27 06:03:09;;;;;;;23.55;9.07;;;4.90;99.90;;;;;;5069843;28;20044;-86
2022/01/27 06:05:34;;;;;;;22.45;10.18;;;5.80;99.90;;;;;;5065814;28;20036;-83
2022/01/27 06:08:00;;;;;;;23.30;11.35;;;4.90;99.90;;;;;;5062869;28;20491;-84
2022/01/27 06:10:28;;;;;;;29.50;11.30;;;5.40;99.90;;;;;;5065701;28;20051;-83
2022/01/27 06:12:58;;;;;;;32.90;13.38;;;4.90;99.90;;;;;;5072220;28;20553;-83
2022/01/27 06:15:27;;;;;;;21.50;10.20;;;5.10;99.90;;;;;;5064686;28;20045;-83
2022/01/27 06:17:55;;;;;;;27.52;10.70;;;5.40;99.90;;;;;;5069245;28;20055;-83
2022/01/27 06:20:20;;;;;;;38.85;12.48;;;5.20;99.90;;;;;;5065555;28;20053;-83
2022/01/27 06:22:47;;;;;;;31.92;12.40;;;4.90;99.90;;;;;;5065554;28;20515;-83
2022/01/27 06:25:15;;;;;;;21.50;10.30;;;4.90;99.90;;;;;;5078225;28;20048;-84
2022/01/27 06:27:41;;;;;;;28.40;9.68;;;5.20;99.90;;;;;;5086801;28;20074;-83
2022/01/27 06:30:12;;;;;;;23.08;10.23;;;4.90;99.90;;;;;;5085911;28;20048;-83
2022/01/27 06:32:38;;;;;;;30.40;9.82;;;4.30;99.90;;;;;;5086979;28;20040;-83
2022/01/27 06:35:04;;;;;;;21.52;10.40;;;5.80;99.90;;;;;;5075055;28;20676;-83
2022/01/27 06:37:31;;;;;;;22.73;9.20;;;4.90;99.90;;;;;;5085308;28;20040;-83
2022/01/27 06:39:57;;;;;;;21.45;9.80;;;4.90;99.90;;;;;;5085127;28;20095;-83
2022/01/27 06:42:23;;;;;;;20.38;9.18;;;4.90;99.90;;;;;;5068697;28;20633;-83
2022/01/27 06:44:49;;;;;;;34.50;14.60;;;5.00;99.90;;;;;;5067085;28;20482;-82
2022/01/27 06:47:14;;;;;;;33.03;13.13;;;4.90;99.90;;;;;;5084341;28;20131;-82
2022/01/27 06:49:40;;;;;;;18.90;9.10;;;5.40;99.90;;;;;;5068219;28;20048;-83
2022/01/27 06:52:07;;;;;;;29.15;10.55;;;5.60;99.90;;;;;;5090432;28;20130;-83
2022/01/27 06:54:33;;;;;;;26.20;9.35;;;4.80;99.90;;;;;;5069964;28;20096;-83
2022/01/27 06:57:00;;;;;;;33.83;10.73;;;5.40;99.90;;;;;;5091626;28;20552;-83
2022/01/27 06:59:26;;;;;;;21.83;10.07;;;4.90;99.90;;;;;;5095556;28;20256;-83
2022/01/27 07:01:51;;;;;;;24.60;11.02;;;4.90;99.90;;;;;;5073211;28;20056;-85
2022/01/27 07:04:17;;;;;;;20.17;9.32;;;4.80;99.90;;;;;;5086729;28;20126;-83
2022/01/27 07:06:43;;;;;;;21.30;9.18;;;5.10;99.90;;;;;;5066854;28;20538;-82
2022/01/27 07:09:09;;;;;;;27.30;11.98;;;5.10;99.90;;;;;;5085448;28;20048;-82
2022/01/27 07:11:34;;;;;;;25.80;10.27;;;5.50;99.90;;;;;;5085568;28;20047;-83
2022/01/27 07:14:00;;;;;;;32.38;10.57;;;4.90;99.90;;;;;;5086390;28;20135;-83
2022/01/27 07:16:26;;;;;;;23.17;9.27;;;5.20;99.90;;;;;;5085221;28;20524;-83
2022/01/27 07:18:52;;;;;;;22.85;10.40;;;4.90;99.90;;;;;;5063934;28;20175;-82
2022/01/27 07:21:19;;;;;;;26.27;10.40;;;5.60;99.90;;;;;;5065842;28;20040;-83
2022/01/27 07:23:49;;;;;;;22.55;10.38;;;5.70;99.90;;;;;;5091140;28;20048;-82
2022/01/27 07:26:24;;;;;;;24.63;10.88;;;4.70;99.90;;;;;;5066479;28;20135;-83
2022/01/27 07:28:51;;;;;;;29.00;10.10;;;5.00;99.90;;;;;;5067465;28;20059;-84
2022/01/27 07:31:17;;;;;;;26.70;10.20;;;4.90;99.90;;;;;;5069873;28;20079;-84
2022/01/27 07:33:43;;;;;;;26.20;12.23;;;5.70;99.90;;;;;;5088856;28;20144;-84
2022/01/27 07:36:08;;;;;;;21.45;9.95;;;5.40;99.90;;;;;;5075808;28;20048;-84
2022/01/27 07:38:40;;;;;;;30.73;11.80;;;5.00;99.90;;;;;;5087854;28;20071;-86
2022/01/27 07:41:16;;;;;;;;;;;;;;;;;;;;;
2022/01/27 07:43:43;;;;;;;26.25;10.15;;;5.50;99.90;;;;;;5086948;28;39615;-83
2022/01/27 07:46:11;;;;;;;28.40;10.05;;;5.40;99.90;;;;;;5082831;28;20037;-82
2022/01/27 07:48:40;;;;;;;30.83;10.85;;;5.70;99.90;;;;;;5093320;28;20063;-82
2022/01/27 07:51:07;;;;;;;21.95;9.65;;;5.00;99.90;;;;;;5090969;28;20051;-81
2022/01/27 07:53:34;;;;;;;28.45;11.48;;;4.90;99.90;;;;;;5086015;28;20036;-82
2022/01/27 07:56:02;;;;;;;22.73;9.82;;;5.00;99.90;;;;;;5088774;28;20089;-83
2022/01/27 07:58:31;;;;;;;31.70;12.27;;;5.20;99.90;;;;;;5082858;28;20056;-83
2022/01/27 08:00:57;;;;;;;25.38;9.80;;;5.20;99.90;;;;;;5075689;28;20118;-82
2022/01/27 08:03:23;;;;;;;24.50;9.93;;;5.00;99.90;;;;;;5077196;28;20036;-81
2022/01/27 08:05:49;;;;;;;26.50;8.73;;;4.90;99.90;;;;;;5113784;28;20040;-80
2022/01/27 08:08:15;;;;;;;37.13;10.27;;;5.00;99.90;;;;;;5112010;28;20033;-78
2022/01/27 08:10:41;;;;;;;20.20;9.20;;;5.40;99.90;;;;;;5091290;28;20040;-80
2022/01/27 08:13:08;;;;;;;26.30;9.38;;;5.00;99.90;;;;;;5113243;28;20825;-79
2022/01/27 08:15:34;;;;;;;23.52;9.63;;;5.50;99.90;;;;;;5091766;28;20116;-80
2022/01/27 08:18:00;;;;;;;26.30;10.48;;;5.30;99.90;;;;;;5090616;28;20047;-80
2022/01/27 08:20:26;;;;;;;22.20;10.57;;;5.10;99.90;;;;;;5117575;28;20123;-80
2022/01/27 08:22:53;;;;;;;23.15;10.80;;;5.10;99.90;;;;;;5117569;28;20044;-79
2022/01/27 08:25:20;;;;;;;24.23;11.50;;;5.40;99.90;;;;;;5105834;28;20181;-80
2022/01/27 08:27:49;;;;;;;23.40;9.85;;;5.10;99.90;;;;;;5082266;28;20055;-80
2022/01/27 08:30:17;;;;;;;23.10;8.98;;;5.20;99.90;;;;;;5088803;28;20116;-80
2022/01/27 08:32:49;;;;;;;25.10;11.02;;;5.20;99.90;;;;;;5095092;28;20040;-80
2022/01/27 08:35:18;;;;;;;24.38;13.02;;;5.30;99.90;;;;;;5100404;28;20036;-79
2022/01/27 08:37:44;;;;;;;27.13;11.52;;;5.30;99.90;;;;;;5076653;28;20425;-80
2022/01/27 08:40:14;;;;;;;26.58;10.73;;;5.50;99.90;;;;;;5099002;28;20124;-80
2022/01/27 08:42:41;;;;;;;30.33;10.77;;;5.30;99.90;;;;;;5094211;28;20095;-80
2022/01/27 08:45:11;;;;;;;25.05;10.60;;;5.30;99.90;;;;;;5097702;28;20052;-79
2022/01/27 08:47:37;;;;;;;23.92;10.30;;;5.30;99.90;;;;;;5099596;28;20504;-80
2022/01/27 08:50:05;;;;;;;25.80;11.18;;;5.40;99.90;;;;;;5092507;28;20095;-81
2022/01/27 08:52:31;;;;;;;29.33;11.35;;;5.40;99.90;;;;;;5076664;28;20032;-80
2022/01/27 08:54:56;;;;;;;27.75;9.38;;;5.40;99.90;;;;;;5091586;28;20437;-80
2022/01/27 08:57:22;;;;;;;26.70;11.18;;;5.40;99.90;;;;;;5078292;28;20044;-80
2022/01/27 08:59:49;;;;;;;24.58;9.90;;;5.90;99.90;;;;;;5093449;28;20479;-82
2022/01/27 09:02:15;;;;;;;27.67;11.00;;;5.70;99.90;;;;;;5095505;28;20885;-81
2022/01/27 09:04:40;;;;;;;21.95;11.65;;;5.40;99.90;;;;;;5089418;28;20119;-81
2022/01/27 09:07:06;;;;;;;22.73;10.77;;;5.40;99.90;;;;;;5087340;28;20587;-82
2022/01/27 09:10:44;;;;;;;21.85;10.05;;;5.50;99.90;;;;;;5067909;28;20036;-76
2022/01/27 09:16:31;;;;;;;23.02;10.88;;;6.10;99.90;;;;;;5076198;28;20602;-76
2022/01/27 09:19:28;;;;;;;31.63;9.93;;;6.10;99.90;;;;;;5092888;28;20061;-76
2022/01/27 09:21:57;;;;;;;26.88;11.55;;;6.10;99.90;;;;;;5073708;28;20422;-76
2022/01/27 09:24:51;;;;;;;29.75;12.75;;;5.90;99.90;;;;;;5067252;28;20052;-76
2022/01/27 09:27:56;;;;;;;28.80;10.20;;;6.30;99.90;;;;;;5089876;28;20028;-76
2022/01/27 09:30:55;;;;;;;32.60;12.13;;;6.00;99.90;;;;;;5065651;28;20475;-76
2022/01/27 09:33:44;;;;;;;22.40;10.57;;;6.80;99.90;;;;;;5073326;28;20067;-76
2022/01/27 09:40:13;;;;;;;25.75;10.35;;;6.30;99.90;;;;;;5082401;28;20613;-76
2022/01/27 09:43:04;;;;;;;;;;;5.60;99.90;;;;;;5086128;28;20040;-76
2022/01/27 09:45:53;;;;;;;24.92;9.15;;;6.20;99.90;;;;;;5087434;28;20001;-77
2022/01/27 09:54:22;;;;;;;;;;;;;;;;;;;;;
2022/01/27 09:57:17;;;;;;;26.02;10.50;;;5.60;99.90;;;;;;5084673;28;43139;-76
2022/01/27 09:59:51;;;;;;;32.25;11.52;;;7.50;99.90;;;;;;5095541;28;20078;-76
2022/01/27 10:02:21;;;;;;;27.80;12.20;;;6.80;99.90;;;;;;5085006;28;20051;-76
2022/01/27 10:04:50;;;;;;;23.52;9.88;;;5.90;99.90;;;;;;5092114;28;20043;-76
2022/01/27 10:07:19;;;;;;;26.33;10.57;;;6.10;99.90;;;;;;5076134;28;20833;-76
2022/01/27 10:09:59;;;;;;;31.05;11.65;;;5.90;99.90;;;;;;5069848;28;20037;-76
2022/01/27 10:12:48;;;;;;;26.30;11.13;;;6.10;99.90;;;;;;5078833;28;20040;-76
2022/01/27 10:15:21;;;;;;;26.10;11.85;;;6.10;99.90;;;;;;5075638;28;20135;-76
2022/01/27 10:18:07;;;;;;;32.38;12.35;;;6.20;99.90;;;;;;5070786;28;20040;-76
2022/01/27 10:20:35;;;;;;;21.65;9.73;;;6.30;99.90;;;;;;5071315;28;20039;-76
2022/01/27 10:23:20;;;;;;;23.50;11.25;;;6.40;99.90;;;;;;5070425;28;20040;-76
2022/01/27 10:26:14;;;;;;;22.38;11.35;;;6.90;99.90;;;;;;5068418;28;20110;-76
2022/01/27 10:28:59;;;;;;;24.27;10.88;;;7.30;99.90;;;;;;5079196;28;20048;-76
2022/01/27 10:31:32;;;;;;;24.95;11.55;;;6.60;99.90;;;;;;5067501;28;20046;-76
2022/01/27 10:34:10;;;;;;;26.58;10.50;;;6.70;99.90;;;;;;5076154;28;20198;-76
2022/01/27 10:36:43;;;;;;;22.48;10.18;;;6.10;99.90;;;;;;5067877;28;20047;-76
2022/01/27 10:39:15;;;;;;;22.95;9.80;;;7.00;99.90;;;;;;5090653;28;20525;-76
2022/01/27 10:42:06;;;;;;;29.10;10.65;;;7.20;99.90;;;;;;5077305;28;20048;-76
2022/01/27 10:44:55;;;;;;;28.63;11.30;;;7.00;99.90;;;;;;5086245;28;20055;-82
2022/01/27 10:47:28;;;;;;;23.25;9.93;;;6.60;99.90;;;;;;5083822;28;20043;-76
2022/01/27 10:50:01;;;;;;;21.67;11.07;;;7.50;99.90;;;;;;5088252;28;20117;-76
2022/01/27 10:52:42;;;;;;;26.25;9.60;;;7.20;99.90;;;;;;5065583;28;20094;-77
2022/01/27 10:55:17;;;;;;;22.50;9.07;;;7.90;99.90;;;;;;5078283;28;20040;-78
2022/01/27 10:57:53;;;;;;;29.73;12.52;;;7.40;99.90;;;;;;5077695;28;20055;-78
2022/01/27 11:00:22;;;;;;;29.98;12.40;;;7.40;99.90;;;;;;5084737;28;20047;-76
2022/01/27 11:03:02;;;;;;;22.95;11.15;;;7.60;99.90;;;;;;5089271;28;20133;-77
2022/01/27 11:05:31;;;;;;;29.85;9.93;;;8.50;99.90;;;;;;5091908;28;20036;-77
2022/01/27 11:07:58;;;;;;;26.23;10.75;;;7.50;99.90;;;;;;5087141;28;20526;-77
2022/01/27 11:10:27;;;;;;;29.38;13.27;;;8.00;99.90;;;;;;5071117;28;20563;-78
2022/01/27 11:12:58;;;;;;;20.98;9.13;;;7.40;99.90;;;;;;5069270;28;20041;-78
2022/01/27 11:15:25;;;;;;;26.05;10.35;;;7.40;99.90;;;;;;5073317;28;20048;-77
2022/01/27 11:17:53;;;;;;;22.00;9.18;;;7.50;99.90;;;;;;5067792;28;22212;-78
2022/01/27 11:20:34;;;;;;;30.60;10.70;;;7.50;99.90;;;;;;5069965;28;20048;-77
2022/01/27 11:25:52;;;;;;;22.00;8.65;;;7.90;99.90;;;;;;5083209;28;20461;-78
2022/01/27 11:28:22;;;;;;;27.42;11.70;;;7.70;99.90;;;;;;5078417;28;20055;-78
2022/01/27 11:31:11;;;;;;;25.90;10.23;;;8.00;99.90;;;;;;5090594;28;20040;-78
2022/01/27 11:33:40;;;;;;;27.17;10.43;;;7.80;99.90;;;;;;5082824;28;20640;-77
2022/01/27 11:36:15;;;;;;;18.20;9.57;;;7.70;99.90;;;;;;5072351;28;20044;-78
2022/01/27 11:38:47;;;;;;;20.45;9.75;;;8.10;99.90;;;;;;5063236;28;20053;-77
2022/01/27 11:41:41;;;;;;;28.25;11.43;;;7.90;99.90;;;;;;5066460;28;20040;-78
2022/01/27 11:44:26;;;;;;;28.20;11.52;;;8.30;99.90;;;;;;5089885;28;20056;-77
2022/01/27 11:47:20;;;;;;;29.40;10.55;;;8.90;99.90;;;;;;5070782;28;20048;-78
2022/01/27 11:50:01;;;;;;;23.10;9.45;;;8.70;99.90;;;;;;5070607;28;20132;-78
2022/01/27 11:52:31;;;;;;;27.52;11.02;;;8.60;99.90;;;;;;5064870;28;20033;-77
2022/01/27 11:55:25;;;;;;;21.02;11.27;;;8.20;99.90;;;;;;5067020;28;20051;-77
2022/01/27 11:57:56;;;;;;;20.83;9.52;;;8.00;99.90;;;;;;5085011;28;20414;-78
2022/01/27 12:00:28;;;;;;;21.80;9.27;;;7.90;99.90;;;;;;5076533;28;20048;-77
2022/01/27 12:03:03;;;;;;;21.15;9.85;;;7.90;99.90;;;;;;5076702;28;20040;-77
2022/01/27 12:05:33;;;;;;;30.80;11.98;;;8.60;99.90;;;;;;5066475;28;20051;-78
2022/01/27 12:08:23;;;;;;;23.10;11.85;;;8.80;99.90;;;;;;5065754;28;20040;-78
2022/01/27 12:10:55;;;;;;;23.90;10.75;;;7.70;99.90;;;;;;5087936;28;20040;-79
2022/01/27 12:13:33;;;;;;;23.50;10.20;;;9.50;99.90;;;;;;5086419;28;20094;-79
2022/01/27 12:18:59;;;;;;;25.65;10.43;;;8.00;99.90;;;;;;5081623;28;20056;-79
2022/01/27 12:21:37;;;;;;;18.07;7.47;;;8.10;99.90;;;;;;5070785;28;20258;-81
2022/01/27 12:24:24;;;;;;;25.85;11.25;;;9.00;99.90;;;;;;5078161;28;20531;-81
2022/01/27 12:26:58;;;;;;;25.42;11.02;;;8.00;99.90;;;;;;5068147;28;20048;-81
2022/01/27 12:29:41;;;;;;;22.55;9.70;;;8.10;99.90;;;;;;5085418;28;20148;-81
2022/01/27 12:32:20;;;;;;;26.25;10.07;;;8.10;99.90;;;;;;5069731;28;20075;-81
2022/01/27 12:34:55;;;;;;;28.42;10.85;;;8.20;99.90;;;;;;5081864;28;20033;-78
2022/01/27 12:37:32;;;;;;;21.50;9.52;;;9.60;99.90;;;;;;5084112;28;20091;-79
2022/01/27 12:40:02;;;;;;;26.17;12.32;;;8.30;99.90;;;;;;5068999;28;20051;-79
2022/01/27 12:42:38;;;;;;;25.20;12.30;;;8.70;99.90;;;;;;5086643;28;20865;-79
2022/01/27 12:45:39;;;;;;;21.90;10.95;;;8.50;99.90;;;;;;5081490;28;20620;-82
2022/01/27 12:48:15;;;;;;;23.05;10.23;;;8.80;99.90;;;;;;5068157;28;20094;-81
2022/01/27 12:50:46;;;;;;;32.28;12.75;;;8.90;99.90;;;;;;5073594;28;20526;-80
2022/01/27 12:53:15;;;;;;;24.47;10.60;;;6.70;99.90;;;;;;5070496;28;20623;-79
2022/01/27 12:55:49;;;;;;;25.50;11.57;;;8.60;99.90;;;;;;5089912;28;20032;-80
2022/01/27 12:58:17;;;;;;;24.70;10.73;;;9.40;99.90;;;;;;5092603;28;20913;-81
2022/01/27 13:00:50;;;;;;;27.65;11.27;;;8.80;99.90;;;;;;5091144;28;20187;-79
2022/01/27 13:03:17;;;;;;;24.25;10.85;;;8.50;99.90;;;;;;5071948;28;20044;-80
2022/01/27 13:05:59;;;;;;;25.17;10.10;;;8.80;99.90;;;;;;5088247;28;20113;-80
2022/01/27 13:08:43;;;;;;;21.48;10.13;;;8.70;99.90;;;;;;5075422;28;20513;-80
2022/01/27 13:11:11;;;;;;;18.58;10.20;;;8.50;99.90;;;;;;5073036;28;20052;-80
2022/01/27 13:13:40;;;;;;;28.58;10.05;;;8.60;99.90;;;;;;5089340;28;20596;-80
2022/01/27 13:16:13;;;;;;;26.42;11.20;;;8.90;99.90;;;;;;5077902;28;20044;-80
2022/01/27 13:18:59;;;;;;;20.33;10.30;;;9.10;99.90;;;;;;5071491;28;20040;-80
2022/01/27 13:21:34;;;;;;;30.73;10.85;;;8.40;99.90;;;;;;5072172;28;20077;-80
2022/01/27 13:24:17;;;;;;;23.77;10.07;;;8.60;99.90;;;;;;5062516;28;20052;-79
2022/01/27 13:26:49;;;;;;;21.42;9.73;;;8.70;99.90;;;;;;5077105;28;20064;-80
2022/01/27 13:29:27;;;;;;;16.88;7.40;;;8.70;99.90;;;;;;5064253;28;20036;-79
2022/01/27 13:31:57;;;;;;;18.50;8.48;;;8.90;99.90;;;;;;5079931;28;20052;-79
2022/01/27 13:34:26;;;;;;;20.02;10.10;;;8.80;99.90;;;;;;5079352;28;20135;-81
2022/01/27 13:36:59;;;;;;;23.65;9.68;;;9.70;99.90;;;;;;5071235;28;20036;-80
2022/01/27 13:42:53;;;;;;;19.13;8.07;;;9.00;99.90;;;;;;5011526;28;20904;-80
2022/01/27 13:45:24;;;;;;;22.45;9.35;;;8.60;99.90;;;;;;5000340;28;20177;-80
2022/01/27 13:47:50;;;;;;;15.67;6.90;;;8.90;99.90;;;;;;5060815;28;20044;-80
2022/01/27 13:50:38;;;;;;;18.95;8.05;;;8.40;99.90;;;;;;5087470;28;20074;-80
2022/01/27 13:53:09;;;;;;;17.20;8.73;;;8.50;99.90;;;;;;5070817;28;20055;-80
2022/01/27 13:55:35;;;;;;;25.55;10.32;;;8.40;99.90;;;;;;5092880;28;20093;-80
2022/01/27 13:58:03;;;;;;;18.58;9.27;;;9.20;99.90;;;;;;5066932;28;20470;-80
2022/01/27 14:00:39;;;;;;;23.77;9.80;;;8.70;99.90;;;;;;5088826;28;20581;-80
2022/01/27 14:03:17;;;;;;;18.38;8.40;;;9.00;99.90;;;;;;5080682;28;20969;-80
2022/01/27 14:06:05;;;;;;;19.75;9.50;;;7.80;99.90;;;;;;5093658;28;20436;-81
2022/01/27 14:08:45;;;;;;;18.33;8.20;;;8.10;99.90;;;;;;5069188;28;20049;-81
2022/01/27 14:11:20;;;;;;;17.50;8.18;;;8.70;99.90;;;;;;5061154;28;20043;-81
2022/01/27 14:13:54;;;;;;;21.15;9.90;;;8.90;99.90;;;;;;5076861;28;20052;-82
2022/01/27 14:16:31;;;;;;;19.45;8.20;;;8.30;99.90;;;;;;5080965;28;20090;-82
2022/01/27 14:19:15;;;;;;;20.92;7.63;;;9.60;99.90;;;;;;5067269;28;20049;-81
2022/01/27 14:21:44;;;;;;;22.58;9.65;;;10.60;99.90;;;;;;5091492;28;20064;-81
2022/01/27 14:24:20;;;;;;;21.92;10.10;;;8.70;99.90;;;;;;5074632;28;20045;-81
2022/01/27 14:27:10;;;;;;;22.08;9.63;;;9.20;99.90;;;;;;5069791;28;20036;-85